This is the latest recevied weather packets stored in our database for station/object VA7NEZ. If no packets are shown the sender has not sent any weather packets the latest 10 day(s).
| Time | Temp. | Humidity | Pressure | Rain* | Wind** | Luminosity | Snow |
|---|---|---|---|---|---|---|---|
| 1778333271 | 7.22° C | 64% | 1020.9 hPa | 0 mm | - | - | - |
| 1778332726 | 7.22° C | 63% | 1020.9 hPa | 0 mm | - | - | - |
| 1778332211 | 7.22° C | 64% | 1020.8 hPa | 0 mm | - | - | - |
| 1778331638 | 7.22° C | 64% | 1020.7 hPa | 0 mm | - | - | - |
| 1778331095 | 7.22° C | 66% | 1020.8 hPa | 0 mm | - | - | - |
| 1778330501 | 6.67° C | 63% | 1020.7 hPa | 0 mm | - | - | - |
| 1778329416 | 6.67° C | 63% | 1020.6 hPa | 0 mm | - | - | - |
| 1778328816 | 7.22° C | 66% | 1020.5 hPa | 0 mm | - | - | - |
| 1778328321 | 7.22° C | 65% | 1020.6 hPa | 0 mm | - | - | - |
| 1778327726 | 0° C | 100% | 1020.4 hPa | 0 mm | - | - | - |
| 1778327211 | 7.22° C | 65% | 1020.5 hPa | 0 mm | - | - | - |
| 1778326661 | 7.78° C | 65% | 1020.4 hPa | 0 mm | - | - | - |
| 1778326071 | 7.78° C | 60% | 1020.3 hPa | 0 mm | - | - | - |
| 1778325546 | 7.78° C | 59% | 1020.3 hPa | 0 mm | - | - | - |
| 1778324442 | 8.33° C | 60% | 1020.2 hPa | 0 mm | - | - | - |
| 1778323871 | 0° C | 100% | 1020.1 hPa | 0 mm | - | - | - |
| 1778323322 | 8.89° C | 57% | 1020.1 hPa | 0 mm | - | - | - |
| 1778322796 | 9.44° C | 56% | 1020 hPa | 0 mm | - | - | - |
| 1778321632 | 10° C | 52% | 1019.7 hPa | 0 mm | - | - | - |
| 1778321091 | 10.56° C | 52% | 1019.5 hPa | 0 mm | - | - | - |
| 1778320591 | 11.11° C | 53% | 1019.7 hPa | 0 mm | - | - | - |
| 1778319990 | 11.11° C | 50% | 1019.4 hPa | 0 mm | - | - | - |
| 1778319501 | 11.11° C | 49% | 1019.5 hPa | 0 mm | - | - | - |
| 1778318511 | 11.11° C | 49% | 1019.3 hPa | 0 mm | - | - | - |
| 1778318006 | 11.11° C | 49% | 1019.3 hPa | 0 mm | - | - | - |
* Rain latest hour (hover to see other rain measurements)
** Current wind speed in m/s (hover to see current wind gust speed)